createdAt,value
2023-04-18T00:04:09.496Z,67.76
2023-04-18T00:09:12.367Z,68.17
2023-04-18T00:14:15.353Z,67.59
2023-04-18T00:19:19.220Z,66.97
2023-04-18T00:24:22.543Z,66.41
2023-04-18T00:29:25.314Z,66.32
2023-04-18T00:34:29.100Z,66.26
2023-04-18T00:39:31.830Z,66.09
2023-04-18T00:44:34.720Z,65.55
2023-04-18T00:49:37.596Z,65.25
2023-04-18T00:54:43.725Z,64.58
2023-04-18T00:59:47.616Z,64.35
2023-04-18T01:04:50.148Z,63.78
2023-04-18T01:09:53.609Z,62.80
2023-04-18T01:14:56.831Z,61.73
2023-04-18T01:20:02.149Z,61.39
2023-04-18T01:25:09.676Z,60.49
2023-04-18T01:30:12.758Z,59.93
2023-04-18T01:35:15.630Z,58.87
2023-04-18T01:40:18.468Z,57.40
2023-04-18T01:45:21.265Z,55.78
2023-04-18T01:50:24.111Z,56.16
2023-04-18T01:55:27.040Z,55.28
2023-04-18T02:00:30.671Z,55.40
2023-04-18T02:05:33.423Z,55.00
2023-04-18T02:10:36.165Z,54.62
2023-04-18T02:15:39.089Z,55.05
2023-04-18T02:20:41.946Z,54.95
2023-04-18T02:25:44.658Z,55.49
2023-04-18T02:30:47.437Z,54.15
2023-04-18T02:35:50.146Z,53.46
2023-04-18T02:40:52.933Z,54.11
2023-04-18T02:45:56.981Z,54.38
2023-04-18T02:51:06.910Z,54.19
2023-04-18T02:56:17.168Z,53.60
2023-04-18T03:01:52.418Z,53.27
2023-04-18T03:06:59.682Z,52.00
2023-04-18T03:12:05.052Z,50.87
2023-04-18T03:17:11.228Z,51.32
2023-04-18T03:22:17.211Z,49.80
2023-04-18T03:27:37.720Z,50.24
2023-04-18T03:32:42.483Z,50.32
2023-04-18T03:37:45.674Z,48.85
2023-04-18T03:42:55.079Z,49.50
2023-04-18T03:47:58.227Z,48.83
2023-04-18T03:53:01.685Z,49.45
2023-04-18T03:58:08.580Z,49.77
2023-04-18T04:03:13.973Z,50.74
2023-04-18T04:08:16.914Z,49.27
2023-04-18T04:13:21.107Z,49.38
2023-04-18T04:18:31.287Z,49.23
2023-04-18T04:23:36.630Z,49.63
2023-04-18T04:28:40.501Z,49.79
2023-04-18T04:33:44.540Z,49.26
2023-04-18T04:38:52.666Z,48.54
2023-04-18T04:44:04.621Z,47.80
2023-04-18T04:49:09.455Z,48.28
2023-04-18T04:54:12.682Z,45.76
2023-04-18T04:59:16.400Z,47.02
2023-04-18T05:04:21.141Z,46.18
2023-04-18T05:09:24.042Z,45.31
2023-04-18T05:14:28.059Z,43.98
2023-04-18T05:19:30.949Z,42.37
2023-04-18T05:24:33.742Z,41.91
2023-04-18T05:29:36.492Z,44.97
2023-04-18T05:34:39.784Z,48.30
2023-04-18T05:39:42.489Z,48.55
2023-04-18T05:44:45.249Z,49.58
2023-04-18T05:49:48.045Z,48.70
2023-04-18T05:54:51.246Z,49.40
2023-04-18T05:59:54.626Z,47.80
2023-04-18T06:04:57.534Z,44.20
2023-04-18T06:10:00.400Z,44.82
2023-04-18T06:15:03.981Z,44.42
2023-04-18T06:20:08.106Z,43.13
2023-04-18T06:25:11.157Z,43.35
2023-04-18T06:30:14.454Z,42.39
2023-04-18T06:35:17.402Z,43.21
2023-04-18T06:40:20.389Z,43.73
2023-04-18T06:45:23.412Z,43.24
2023-04-18T06:50:27.260Z,42.69
2023-04-18T06:55:30.148Z,43.05
2023-04-18T07:00:32.887Z,42.32
2023-04-18T07:05:37.144Z,42.46
2023-04-18T07:10:39.899Z,42.92
2023-04-18T07:15:42.828Z,43.43
2023-04-18T07:20:45.789Z,44.25
2023-04-18T07:25:49.922Z,44.21
2023-04-18T07:30:52.685Z,43.37
2023-04-18T07:35:55.545Z,40.16
2023-04-18T07:40:59.335Z,40.59
2023-04-18T07:46:02.358Z,43.41
2023-04-18T07:51:05.234Z,43.66
2023-04-18T07:56:08.073Z,43.05
2023-04-18T08:01:14.364Z,44.27
2023-04-18T08:06:17.974Z,45.32
2023-04-18T08:11:20.972Z,45.97
2023-04-18T08:16:23.853Z,45.94
2023-04-18T08:21:27.179Z,44.67
2023-04-18T08:26:30.070Z,43.72
2023-04-18T08:31:33.141Z,42.03
2023-04-18T08:36:36.235Z,40.59
2023-04-18T08:41:39.864Z,38.72
2023-04-18T08:46:42.602Z,45.31
2023-04-18T08:51:47.999Z,47.64
2023-04-18T08:57:16.800Z,47.95
2023-04-18T09:02:22.433Z,47.21
2023-04-18T09:07:29.109Z,46.34
2023-04-18T09:12:33.007Z,44.63
2023-04-18T09:17:52.809Z,44.72
2023-04-18T09:22:58.215Z,44.42
2023-04-18T09:28:05.380Z,44.77
2023-04-18T09:33:13.095Z,44.24
2023-04-18T09:38:15.940Z,44.26
2023-04-18T09:43:22.207Z,43.52
2023-04-18T09:48:24.923Z,42.68
2023-04-18T09:53:29.060Z,41.26
2023-04-18T09:58:33.478Z,40.80
2023-04-18T10:03:42.670Z,40.29
2023-04-18T10:08:46.479Z,39.36
2023-04-18T10:13:50.712Z,40.42
2023-04-18T10:18:53.209Z,39.51
2023-04-18T10:23:55.879Z,39.87
2023-04-18T10:28:59.822Z,39.04
2023-04-18T10:34:07.224Z,39.37
2023-04-18T10:39:23.715Z,39.14
2023-04-18T10:44:27.423Z,39.25
2023-04-18T10:49:33.918Z,39.43
2023-04-18T10:54:39.421Z,38.64
2023-04-18T10:59:43.744Z,38.40
2023-04-18T11:04:53.056Z,38.80
2023-04-18T11:09:56.602Z,38.40
2023-04-18T11:14:59.874Z,37.75
2023-04-18T11:20:11.850Z,38.12
2023-04-18T11:25:15.744Z,38.61
2023-04-18T11:30:18.684Z,38.80
2023-04-18T11:35:21.526Z,39.00
2023-04-18T11:40:24.588Z,38.80
2023-04-18T11:45:27.760Z,39.39
2023-04-18T11:50:36.586Z,39.35
2023-04-18T11:55:39.451Z,39.38
2023-04-18T12:00:42.615Z,39.82
2023-04-18T12:05:45.845Z,40.08
2023-04-18T12:10:53.483Z,40.02
2023-04-18T12:15:57.065Z,40.99
2023-04-18T12:21:02.354Z,41.82
2023-04-18T12:26:06.078Z,42.18
2023-04-18T12:31:09.190Z,43.42
2023-04-18T12:36:12.165Z,43.79
2023-04-18T12:41:14.937Z,44.80
2023-04-18T12:46:17.633Z,44.87
2023-04-18T12:51:24.335Z,46.77
2023-04-18T12:56:28.520Z,48.55
2023-04-18T13:01:31.334Z,49.58
2023-04-18T13:06:34.171Z,49.29
2023-04-18T13:11:37.131Z,50.86
2023-04-18T13:16:41.116Z,53.70
2023-04-18T13:21:47.781Z,55.45
2023-04-18T13:26:52.004Z,61.04
2023-04-18T13:31:54.906Z,64.36
2023-04-18T13:36:59.090Z,64.78
2023-04-18T13:42:05.386Z,64.37
2023-04-18T13:47:08.501Z,64.62
2023-04-18T13:52:11.315Z,63.53
2023-04-18T13:57:15.034Z,63.51
2023-04-18T14:02:18.029Z,63.29
2023-04-18T14:07:20.837Z,63.39
2023-04-18T14:12:23.548Z,63.48
2023-04-18T14:17:26.384Z,63.61
2023-04-18T14:22:29.120Z,63.87
2023-04-18T14:27:31.876Z,64.06
2023-04-18T14:32:35.788Z,64.56
2023-04-18T14:37:38.398Z,65.01
2023-04-18T14:42:41.289Z,64.38
2023-04-18T14:47:44.722Z,64.05
2023-04-18T14:52:47.784Z,64.31
2023-04-18T14:57:50.535Z,64.40
2023-04-18T15:02:54.108Z,64.72
2023-04-18T15:07:57.144Z,64.79
2023-04-18T15:12:59.948Z,65.34
2023-04-18T15:18:03.235Z,65.91
2023-04-18T15:23:06.161Z,65.60
2023-04-18T15:28:09.266Z,66.17
2023-04-18T15:33:13.406Z,65.80
2023-04-18T15:38:16.507Z,66.17
2023-04-18T15:43:19.369Z,66.32
2023-04-18T15:48:22.126Z,66.84
2023-04-18T15:53:24.948Z,66.99
2023-04-18T15:58:30.484Z,67.05
2023-04-18T16:03:33.493Z,67.46
2023-04-18T16:08:37.358Z,67.86
2023-04-18T16:13:40.119Z,68.07
2023-04-18T16:18:42.834Z,67.94
2023-04-18T16:23:45.725Z,68.63
2023-04-18T16:28:48.895Z,68.54
2023-04-18T16:33:53.113Z,68.70
2023-04-18T16:38:56.014Z,68.67
2023-04-18T16:43:58.769Z,68.79
2023-04-18T16:49:02.043Z,68.97
2023-04-18T16:54:05.531Z,68.67
2023-04-18T16:59:09.720Z,68.44
2023-04-18T17:04:12.874Z,68.08
2023-04-18T17:09:16.154Z,67.92
2023-04-18T17:14:19.256Z,67.28
2023-04-18T17:19:22.948Z,67.75
2023-04-18T17:24:25.690Z,67.83
2023-04-18T17:29:28.480Z,68.59
2023-04-18T17:34:31.362Z,68.96
2023-04-18T17:39:34.239Z,68.71
2023-04-18T17:44:40.046Z,69.42
2023-04-18T17:49:43.059Z,70.60
2023-04-18T17:54:46.010Z,70.74
2023-04-18T17:59:49.392Z,70.22
2023-04-18T18:04:52.343Z,70.92
2023-04-18T18:09:55.391Z,71.24
2023-04-18T18:14:58.503Z,71.08
2023-04-18T18:20:01.229Z,71.66
2023-04-18T18:25:05.725Z,71.62
2023-04-18T18:30:08.624Z,72.43
2023-04-18T18:35:11.373Z,72.62
2023-04-18T18:40:14.367Z,73.01
2023-04-18T18:45:17.909Z,73.41
2023-04-18T18:50:20.740Z,73.63
2023-04-18T18:55:23.731Z,73.26
2023-04-18T19:00:26.702Z,73.50
2023-04-18T19:05:29.511Z,74.14
2023-04-18T19:10:32.331Z,74.10
2023-04-18T19:15:35.236Z,74.17
2023-04-18T19:20:40.663Z,73.95
2023-04-18T19:25:43.689Z,74.58
2023-04-18T19:30:46.794Z,74.44
2023-04-18T19:35:49.535Z,74.25
2023-04-18T19:40:52.475Z,74.17
2023-04-18T19:45:55.464Z,73.84
2023-04-18T19:50:58.485Z,73.70
2023-04-18T19:56:01.258Z,73.63
2023-04-18T20:01:06.387Z,73.32
2023-04-18T20:06:09.510Z,72.74
2023-04-18T20:11:14.456Z,73.03
2023-04-18T20:16:17.766Z,71.95
2023-04-18T20:21:20.661Z,71.20
2023-04-18T20:26:23.537Z,70.76
2023-04-18T20:31:26.275Z,70.21
2023-04-18T20:36:31.365Z,69.92
2023-04-18T20:41:35.088Z,69.11
2023-04-18T20:46:37.924Z,68.16
2023-04-18T20:51:40.763Z,67.85
2023-04-18T20:56:43.659Z,66.71
2023-04-18T21:01:47.285Z,66.28
2023-04-18T21:06:50.188Z,66.71
2023-04-18T21:11:52.961Z,66.59
2023-04-18T21:16:56.405Z,66.22
2023-04-18T21:21:59.388Z,66.69
2023-04-18T21:27:02.884Z,66.88
2023-04-18T21:32:05.740Z,66.51
2023-04-18T21:37:08.814Z,66.50
2023-04-18T21:42:11.604Z,66.38
2023-04-18T21:47:14.381Z,66.32
2023-04-18T21:52:17.247Z,67.00
2023-04-18T21:57:19.861Z,66.96
2023-04-18T22:02:22.822Z,66.98
2023-04-18T22:07:25.773Z,67.24
2023-04-18T22:12:28.801Z,67.35
2023-04-18T22:17:31.674Z,67.40
2023-04-18T22:22:34.423Z,67.48
2023-04-18T22:27:37.263Z,67.97
2023-04-18T22:32:40.401Z,68.03
2023-04-18T22:37:43.266Z,68.19
2023-04-18T22:42:46.062Z,68.08
2023-04-18T22:47:48.850Z,68.24
2023-04-18T22:52:51.833Z,68.42
2023-04-18T22:57:54.676Z,68.63
2023-04-18T23:02:57.568Z,68.85
2023-04-18T23:08:00.748Z,68.99
2023-04-18T23:13:03.773Z,69.17
2023-04-18T23:18:06.566Z,69.33
2023-04-18T23:23:09.438Z,69.22
2023-04-18T23:28:13.915Z,69.45
2023-04-18T23:33:17.151Z,69.39
2023-04-18T23:38:20.058Z,69.40
2023-04-18T23:43:22.843Z,69.52
2023-04-18T23:48:25.596Z,69.59
2023-04-18T23:53:28.474Z,69.63
2023-04-18T23:58:32.059Z,69.27
